Latest Coastal Weather Observations for Swanbourne

IDW60701

Issued at 10:22 pm WST Thursday 18 December 2014 (issued every 10 minutes, with the page automatically refreshed every 10 minutes)

About coastal observations | Map of coastal stations | Coastal observations for WA | Marine services | Other Formats
Station Details ID: 009215 Name: SWANBOURNE Lat: -31.96 Lon: 115.76 Height: 40.96 m
Data from the previous 72 hours. | See also: Recent months at Swanbourne
Date/Time
WST
Temp

°C
Wind Pressure Rain
since 9am
mm
Weather Cloud Vis
km
Sea
Height
m
Swell
Dir
 
Speed
knots
Gust
knots
hPa Trend Height
m
Period
s
Dir
18/10:00pm 19.3 S 8 11 - - 0.0 - - - - - - -
18/09:30pm 19.1 S 7 12 - - 0.0 - - - - - - -
18/09:00pm 18.9 S 6 8 - - 0.0 - - - - - - -
18/08:30pm 19.0 SSE 6 8 - - 0.0 - - - - - - -
18/08:00pm 19.6 S 8 14 - - 0.0 - - - - - - -
18/07:30pm 20.0 S 9 15 - - 0.0 - - - - - - -
18/07:00pm 20.7 S 10 15 - - 0.0 - - - - - - -
18/06:30pm 21.4 S 14 21 - - 0.0 - - - - - - -
18/06:00pm 22.3 SSW 12 19 - - 0.0 - - - - - - -
18/05:30pm 22.8 SSW 15 22 - - 0.0 - - - - - - -
18/05:00pm 23.4 SSW 13 22 - - 0.0 - - - - - - -
18/04:30pm 23.3 SSW 15 21 - - 0.0 - - - - - - -
18/04:00pm 23.6 SSW 12 19 - - 0.0 - - - - - - -
18/03:30pm 23.9 SSW 14 20 - - 0.0 - - - - - - -
18/03:00pm 23.4 SSW 15 21 - - 0.0 - - - - - - -
18/02:30pm 24.2 SSW 16 21 - - 0.0 - - - - - - -
18/02:00pm 24.7 SSW 14 21 - - 0.0 - - - - - - -
18/01:30pm 25.9 SSW 13 19 - - 0.0 - - - - - - -
18/01:00pm 25.3 SSW 13 19 - - 0.0 - - - - - - -
18/12:30pm 30.1 SSE 5 11 - - 0.0 - - - - - - -
18/12:00pm 29.8 ESE 8 14 - - 0.0 - - - - - - -
18/11:30am 28.5 ESE 5 10 - - 0.0 - - - - - - -
18/11:00am 27.3 ENE 6 13 - - 0.0 - - - - - - -
18/10:30am 26.6 ESE 6 10 - - 0.0 - - - - - - -
18/10:00am 25.4 ESE 8 13 - - 0.0 - - - - - - -
18/09:30am 23.8 ESE 8 14 - - 0.0 - - - - - - -
18/09:00am 22.8 E 10 18 - - 0.0 - - - - - - -
18/08:30am 21.4 E 11 17 - - 0.0 - - - - - - -
18/08:00am 20.3 E 12 19 - - 0.0 - - - - - - -
18/07:30am 19.1 E 11 18 - - 0.0 - - - - - - -
18/07:00am 18.4 E 9 15 - - 0.0 - - - - - - -
18/06:30am 17.6 E 10 17 - - 0.0 - - - - - - -
18/06:00am 16.6 E 8 11 - - 0.0 - - - - - - -
18/05:30am 15.2 ESE 6 9 - - 0.0 - - - - - - -
18/05:00am 14.9 ESE 5 8 - - 0.0 - - - - - - -
18/04:30am 15.3 ESE 5 8 - - 0.0 - - - - - - -
18/04:00am 15.5 ESE 6 10 - - 0.0 - - - - - - -
18/03:30am 15.0 ESE 6 9 - - 0.0 - - - - - - -
18/03:00am 14.6 SE 5 7 - - 0.0 - - - - - - -
18/02:30am 15.3 SE 6 9 - - 0.0 - - - - - - -
18/02:00am 15.4 SSE 6 10 - - 0.0 - - - - - - -
18/01:30am 15.6 SSE 6 9 - - 0.0 - - - - - - -
18/01:00am 15.8 SSE 7 9 - - 0.0 - - - - - - -
18/12:30am 16.1 S 7 11 - - 0.0 - - - - - - -
18/12:00am 16.5 S 7 9 - - 0.0 - - - - - - -
 
Date/Time
WST
Temp

°C
Wind Pressure Rain
since 9am
mm
Weather Cloud Vis
km
Sea
Height
m
Swell
Dir
 
Speed
knots
Gust
knots
hPa Trend Height
m
Period
s
Dir
17/11:30pm 17.0 SSE 6 9 - - 0.0 - - - - - - -
17/11:00pm 17.7 SSE 9 15 - - 0.0 - - - - - - -
17/10:30pm 18.0 S 10 18 - - 0.0 - - - - - - -
17/10:00pm 18.1 SSE 9 15 - - 0.0 - - - - - - -
17/09:30pm 18.3 S 7 14 - - 0.0 - - - - - - -
17/09:00pm 18.7 S 10 19 - - 0.0 - - - - - - -
17/08:30pm 18.4 S 11 20 - - 0.0 - - - - - - -
17/08:00pm 18.4 S 12 19 - - 0.0 - - - - - - -
17/07:30pm 18.6 S 14 20 - - 0.0 - - - - - - -
17/07:00pm 19.0 SSW 14 21 - - 0.0 - - - - - - -
17/06:30pm 19.6 SSW 14 24 - - 0.0 - - - - - - -
17/06:11pm 19.8 SSW 17 27 - - 0.0 - - - - - - -
17/06:00pm 20.1 SSW 16 23 - - 0.0 - - - - - - -
17/05:30pm 20.6 SSW 16 24 - - 0.0 - - - - - - -
17/05:00pm 20.9 SSW 16 25 - - 0.0 - - - - - - -
17/04:30pm 21.6 SSW 16 23 - - 0.0 - - - - - - -
17/04:00pm 21.8 SSW 15 22 - - 0.0 - - - - - - -
17/03:30pm 21.9 SSW 15 20 - - 0.0 - - - - - - -
17/03:00pm 21.5 SSW 16 23 - - 0.0 - - - - - - -
17/02:30pm 21.8 SW 15 23 - - 0.0 - - - - - - -
17/02:00pm 21.9 SW 15 21 - - 0.0 - - - - - - -
17/01:30pm 21.7 SW 16 23 - - 0.0 - - - - - - -
17/01:00pm 22.2 SSW 13 21 - - 0.0 - - - - - - -
17/12:30pm 22.6 SW 13 21 - - 0.0 - - - - - - -
17/12:00pm 22.3 SSW 14 21 - - 0.0 - - - - - - -
17/11:30am 22.1 SW 15 22 - - 0.0 - - - - - - -
17/11:00am 21.9 SW 13 21 - - 0.0 - - - - - - -
17/10:30am 22.8 SSW 12 18 - - 0.0 - - - - - - -
17/10:00am 21.9 SSW 10 17 - - 0.0 - - - - - - -
17/09:30am 22.0 S 9 13 - - 0.0 - - - - - - -
17/09:00am 21.4 SSE 7 13 - - 0.0 - - - - - - -
17/08:30am 20.9 SSE 8 13 - - 0.0 - - - - - - -
17/08:00am 19.7 SE 8 12 - - 0.0 - - - - - - -
17/07:30am 18.1 SE 9 17 - - 0.0 - - - - - - -
17/07:00am 16.8 SE 10 16 - - 0.0 - - - - - - -
17/06:30am 15.4 SSE 10 16 - - 0.0 - - - - - - -
17/06:00am 14.4 SSE 8 12 - - 0.0 - - - - - - -
17/05:30am 13.3 SE 8 12 - - 0.0 - - - - - - -
17/05:00am 12.7 SE 5 8 - - 0.0 - - - - - - -
17/04:30am 13.2 SE 7 10 - - 0.0 - - - - - - -
17/04:00am 13.6 SSE 8 12 - - 0.0 - - - - - - -
17/03:30am 13.9 SE 7 11 - - 0.0 - - - - - - -
17/03:00am 14.6 SSE 10 17 - - 0.0 - - - - - - -
17/02:30am 15.2 SSE 10 16 - - 0.0 - - - - - - -
17/02:00am 15.1 SSE 8 13 - - 0.0 - - - - - - -
17/01:30am 15.0 SSE 8 11 - - 0.0 - - - - - - -
17/01:00am 16.0 SSE 8 14 - - 0.0 - - - - - - -
17/12:30am 16.5 SSE 7 11 - - 0.0 - - - - - - -
17/12:00am 16.6 SSW 10 17 - - 0.0 - - - - - - -
 
Date/Time
WST
Temp

°C
Wind Pressure Rain
since 9am
mm
Weather Cloud Vis
km
Sea
Height
m
Swell
Dir
 
Speed
knots
Gust
knots
hPa Trend Height
m
Period
s
Dir
16/11:30pm 16.7 SSW 11 18 - - 0.0 - - - - - - -
16/11:00pm 16.9 SSW 13 18 - - 0.0 - - - - - - -
16/10:30pm 16.9 SSW 12 17 - - 0.0 - - - - - - -
16/10:00pm 17.0 SSW 12 17 - - 0.0 - - - - - - -
16/09:30pm 16.9 SSW 11 16 - - 0.0 - - - - - - -
16/09:00pm 16.9 SSW 9 14 - - 0.0 - - - - - - -
16/08:30pm 17.0 SSW 11 16 - - 0.0 - - - - - - -
16/08:00pm 17.1 SSW 10 15 - - 0.0 - - - - - - -
16/07:30pm 17.2 SSW 10 16 - - 0.0 - - - - - - -
16/07:00pm 17.8 SSW 11 18 - - 0.0 - - - - - - -
16/06:30pm 18.8 SSW 10 16 - - 0.0 - - - - - - -
16/06:00pm 19.6 SSW 10 15 - - 0.0 - - - - - - -
16/05:30pm 19.7 SW 11 18 - - 0.0 - - - - - - -
16/05:00pm 20.4 SSW 13 18 - - 0.0 - - - - - - -
16/04:30pm 21.1 SW 12 17 - - 0.0 - - - - - - -
16/04:00pm 20.9 SSW 12 17 - - 0.0 - - - - - - -
16/03:30pm 21.5 SW 12 17 - - 0.0 - - - - - - -
16/03:00pm 21.6 SW 12 17 - - 0.0 - - - - - - -
16/02:30pm 22.2 SW 12 16 - - 0.0 - - - - - - -
16/02:00pm 21.0 SW 12 18 - - 0.0 - - - - - - -
16/01:30pm 22.1 SW 10 15 - - 0.0 - - - - - - -
16/01:00pm 21.2 SW 11 15 - - 0.0 - - - - - - -
16/12:30pm 21.0 SW 12 17 - - 0.0 - - - - - - -
16/12:00pm 20.7 SW 11 15 - - 0.0 - - - - - - -
16/11:30am 21.2 WSW 10 13 - - 0.0 - - - - - - -
16/11:00am 20.5 WSW 9 13 - - 0.0 - - - - - - -
16/10:30am 21.2 WSW 8 12 - - 0.0 - - - - - - -
16/10:00am 21.8 SW 5 11 - - 0.0 - - - - - - -
16/09:30am 20.3 NNE 3 7 - - 0.0 - - - - - - -
16/09:00am 20.3 E 5 7 - - 0.0 - - - - - - -
16/08:30am 19.4 ESE 5 9 - - 0.0 - - - - - - -
16/08:00am 18.4 E 6 10 - - 0.0 - - - - - - -
16/07:30am 17.7 SE 6 10 - - 0.0 - - - - - - -
16/07:00am 16.5 ESE 6 9 - - 0.0 - - - - - - -
16/06:30am 15.3 SE 6 10 - - 0.0 - - - - - - -
16/06:00am 14.1 SE 7 10 - - 0.0 - - - - - - -
16/05:30am 12.5 SE 5 8 - - 0.0 - - - - - - -
16/05:00am 12.5 SE 5 8 - - 0.0 - - - - - - -
16/04:30am 13.2 SE 6 10 - - 0.0 - - - - - - -
16/04:00am 13.5 SSE 7 12 - - 0.0 - - - - - - -
16/03:30am 13.8 SSE 9 13 - - 0.0 - - - - - - -
16/03:00am 14.0 SSE 7 12 - - 0.0 - - - - - - -
16/02:30am 14.3 SSE 7 12 - - 0.0 - - - - - - -
16/02:00am 14.9 SSE 8 12 - - 0.0 - - - - - - -
16/01:30am 16.0 SSE 8 13 - - 0.0 - - - - - - -
16/01:00am 16.6 SSE 6 10 - - 0.0 - - - - - - -
16/12:30am 17.2 SSE 5 10 - - 0.0 - - - - - - -
16/12:00am 17.6 SSE 7 12 - - 0.0 - - - - - - -
 
Date/Time
WST
Temp

°C
Wind Pressure Rain
since 9am
mm
Weather Cloud Vis
km
Sea
Height
m
Swell
Dir
 
Speed
knots
Gust
knots
hPa Trend Height
m
Period
s
Dir
15/11:30pm 17.5 S 8 12 - - 0.0 - - - - - - -
15/11:00pm 18.2 SSW 8 12 - - 0.0 - - - - - - -
15/10:30pm 18.4 SSW 8 12 - - 0.0 - - - - - - -

Other Formats:

Comma delimited format used in spreadsheet applications
http://www.bom.gov.au/fwo/IDW60701/IDW60701.94614.axf

JavaScript Object Notation format (JSON) in row-major order
http://www.bom.gov.au/fwo/IDW60701/IDW60701.94614.json